sensor_id;sensor_type;location;lat;lon;timestamp;temperature;humidity
32706;DHT22;19094;50.972;3.538;2023-04-03T00:01:56;12.00;64.90
32706;DHT22;19094;50.972;3.538;2023-04-03T00:04:21;12.00;64.70
32706;DHT22;19094;50.972;3.538;2023-04-03T00:06:47;12.10;64.90
32706;DHT22;19094;50.972;3.538;2023-04-03T00:09:12;12.10;64.30
32706;DHT22;19094;50.972;3.538;2023-04-03T00:11:38;12.10;64.10
32706;DHT22;19094;50.972;3.538;2023-04-03T00:14:04;12.10;64.20
32706;DHT22;19094;50.972;3.538;2023-04-03T00:16:29;12.10;64.20
32706;DHT22;19094;50.972;3.538;2023-04-03T00:18:55;12.10;64.30
32706;DHT22;19094;50.972;3.538;2023-04-03T00:21:21;12.10;64.00
32706;DHT22;19094;50.972;3.538;2023-04-03T00:23:46;12.10;63.80
32706;DHT22;19094;50.972;3.538;2023-04-03T00:26:12;12.10;63.80
32706;DHT22;19094;50.972;3.538;2023-04-03T00:28:38;12.10;64.80
32706;DHT22;19094;50.972;3.538;2023-04-03T00:31:03;12.10;64.10
32706;DHT22;19094;50.972;3.538;2023-04-03T00:33:29;12.10;64.10
32706;DHT22;19094;50.972;3.538;2023-04-03T00:35:55;12.10;63.90
32706;DHT22;19094;50.972;3.538;2023-04-03T00:38:20;12.20;64.10
32706;DHT22;19094;50.972;3.538;2023-04-03T00:40:48;12.10;63.60
32706;DHT22;19094;50.972;3.538;2023-04-03T00:43:19;12.10;63.90
32706;DHT22;19094;50.972;3.538;2023-04-03T00:45:56;12.10;63.90
32706;DHT22;19094;50.972;3.538;2023-04-03T00:50:52;12.10;64.00
32706;DHT22;19094;50.972;3.538;2023-04-03T00:53:25;12.10;64.20
32706;DHT22;19094;50.972;3.538;2023-04-03T00:55:52;12.10;64.10
32706;DHT22;19094;50.972;3.538;2023-04-03T00:58:21;12.10;63.80
32706;DHT22;19094;50.972;3.538;2023-04-03T01:00:53;12.10;64.00
32706;DHT22;19094;50.972;3.538;2023-04-03T01:03:23;12.10;64.10
32706;DHT22;19094;50.972;3.538;2023-04-03T01:05:49;12.10;64.30
32706;DHT22;19094;50.972;3.538;2023-04-03T01:08:15;12.10;63.90
32706;DHT22;19094;50.972;3.538;2023-04-03T01:10:41;12.10;64.10
32706;DHT22;19094;50.972;3.538;2023-04-03T01:15:46;12.00;63.70
32706;DHT22;19094;50.972;3.538;2023-04-03T01:18:11;12.00;64.40
32706;DHT22;19094;50.972;3.538;2023-04-03T01:26:04;12.00;64.10
32706;DHT22;19094;50.972;3.538;2023-04-03T01:28:33;12.00;64.20
32706;DHT22;19094;50.972;3.538;2023-04-03T01:33:30;11.90;64.30
32706;DHT22;19094;50.972;3.538;2023-04-03T01:35:56;11.90;64.30
32706;DHT22;19094;50.972;3.538;2023-04-03T01:38:22;11.90;64.10
32706;DHT22;19094;50.972;3.538;2023-04-03T01:40:48;11.90;64.60
32706;DHT22;19094;50.972;3.538;2023-04-03T01:43:14;11.90;64.30
32706;DHT22;19094;50.972;3.538;2023-04-03T01:45:39;11.90;64.30
32706;DHT22;19094;50.972;3.538;2023-04-03T01:48:05;11.90;64.20
32706;DHT22;19094;50.972;3.538;2023-04-03T01:50:31;11.80;64.20
32706;DHT22;19094;50.972;3.538;2023-04-03T01:52:56;11.80;64.20
32706;DHT22;19094;50.972;3.538;2023-04-03T01:55:22;11.80;64.10
32706;DHT22;19094;50.972;3.538;2023-04-03T01:57:48;11.80;64.20
32706;DHT22;19094;50.972;3.538;2023-04-03T02:00:14;11.80;64.30
32706;DHT22;19094;50.972;3.538;2023-04-03T02:02:39;11.70;64.30
32706;DHT22;19094;50.972;3.538;2023-04-03T02:05:06;11.70;64.40
32706;DHT22;19094;50.972;3.538;2023-04-03T02:07:31;11.70;64.30
32706;DHT22;19094;50.972;3.538;2023-04-03T02:09:57;11.80;64.20
32706;DHT22;19094;50.972;3.538;2023-04-03T02:12:23;11.80;64.30
32706;DHT22;19094;50.972;3.538;2023-04-03T02:14:48;11.80;63.90
32706;DHT22;19094;50.972;3.538;2023-04-03T02:17:14;11.80;64.00
32706;DHT22;19094;50.972;3.538;2023-04-03T02:19:40;11.80;63.90
32706;DHT22;19094;50.972;3.538;2023-04-03T02:22:06;11.80;63.60
32706;DHT22;19094;50.972;3.538;2023-04-03T02:24:32;11.80;63.60
32706;DHT22;19094;50.972;3.538;2023-04-03T02:26:58;11.80;63.50
32706;DHT22;19094;50.972;3.538;2023-04-03T02:29:23;11.80;63.40
32706;DHT22;19094;50.972;3.538;2023-04-03T02:31:50;11.80;63.50
32706;DHT22;19094;50.972;3.538;2023-04-03T02:34:16;11.80;63.20
32706;DHT22;19094;50.972;3.538;2023-04-03T02:36:41;11.80;63.60
32706;DHT22;19094;50.972;3.538;2023-04-03T02:39:07;11.80;63.60
32706;DHT22;19094;50.972;3.538;2023-04-03T02:41:33;11.80;63.50
32706;DHT22;19094;50.972;3.538;2023-04-03T02:44:02;11.80;63.40
32706;DHT22;19094;50.972;3.538;2023-04-03T02:46:28;11.80;63.40
32706;DHT22;19094;50.972;3.538;2023-04-03T02:48:54;11.80;63.50
32706;DHT22;19094;50.972;3.538;2023-04-03T02:51:19;11.80;63.70
32706;DHT22;19094;50.972;3.538;2023-04-03T02:53:45;11.80;63.50
32706;DHT22;19094;50.972;3.538;2023-04-03T02:56:11;11.80;63.60
32706;DHT22;19094;50.972;3.538;2023-04-03T02:58:36;11.80;63.70
32706;DHT22;19094;50.972;3.538;2023-04-03T03:01:03;11.80;63.30
32706;DHT22;19094;50.972;3.538;2023-04-03T03:03:28;11.80;63.60
32706;DHT22;19094;50.972;3.538;2023-04-03T03:06:05;11.80;63.60
32706;DHT22;19094;50.972;3.538;2023-04-03T03:08:31;11.80;63.70
32706;DHT22;19094;50.972;3.538;2023-04-03T03:10:57;11.70;63.40
32706;DHT22;19094;50.972;3.538;2023-04-03T03:13:23;11.80;63.80
32706;DHT22;19094;50.972;3.538;2023-04-03T03:15:48;11.80;63.50
32706;DHT22;19094;50.972;3.538;2023-04-03T03:18:14;11.80;63.50
32706;DHT22;19094;50.972;3.538;2023-04-03T03:20:40;11.80;63.50
32706;DHT22;19094;50.972;3.538;2023-04-03T03:23:06;11.70;63.70
32706;DHT22;19094;50.972;3.538;2023-04-03T03:25:32;11.70;63.40
32706;DHT22;19094;50.972;3.538;2023-04-03T03:27:57;11.70;63.70
32706;DHT22;19094;50.972;3.538;2023-04-03T03:30:23;11.70;63.70
32706;DHT22;19094;50.972;3.538;2023-04-03T03:32:48;11.70;63.60
32706;DHT22;19094;50.972;3.538;2023-04-03T03:35:14;11.70;63.70
32706;DHT22;19094;50.972;3.538;2023-04-03T03:37:40;11.60;63.70
32706;DHT22;19094;50.972;3.538;2023-04-03T03:40:06;11.60;63.90
32706;DHT22;19094;50.972;3.538;2023-04-03T03:42:32;11.60;63.70
32706;DHT22;19094;50.972;3.538;2023-04-03T03:44:57;11.70;63.80
32706;DHT22;19094;50.972;3.538;2023-04-03T03:47:23;11.60;63.40
32706;DHT22;19094;50.972;3.538;2023-04-03T03:49:49;11.70;63.60
32706;DHT22;19094;50.972;3.538;2023-04-03T03:52:15;11.60;63.70
32706;DHT22;19094;50.972;3.538;2023-04-03T03:54:40;11.60;64.10
32706;DHT22;19094;50.972;3.538;2023-04-03T03:57:06;11.50;63.80
32706;DHT22;19094;50.972;3.538;2023-04-03T03:59:32;11.60;63.70
32706;DHT22;19094;50.972;3.538;2023-04-03T04:01:57;11.60;63.70
32706;DHT22;19094;50.972;3.538;2023-04-03T04:04:23;11.50;63.90
32706;DHT22;19094;50.972;3.538;2023-04-03T04:06:48;11.60;63.20
32706;DHT22;19094;50.972;3.538;2023-04-03T04:09:14;11.60;63.70
32706;DHT22;19094;50.972;3.538;2023-04-03T04:11:40;11.60;63.40
32706;DHT22;19094;50.972;3.538;2023-04-03T04:14:06;11.60;63.70
32706;DHT22;19094;50.972;3.538;2023-04-03T04:16:32;11.60;63.50
32706;DHT22;19094;50.972;3.538;2023-04-03T04:18:58;11.60;63.60
32706;DHT22;19094;50.972;3.538;2023-04-03T04:21:23;11.60;64.30
32706;DHT22;19094;50.972;3.538;2023-04-03T04:23:49;11.50;63.60
32706;DHT22;19094;50.972;3.538;2023-04-03T04:26:15;11.50;63.60
32706;DHT22;19094;50.972;3.538;2023-04-03T04:28:41;11.50;63.50
32706;DHT22;19094;50.972;3.538;2023-04-03T04:31:06;11.50;63.50
32706;DHT22;19094;50.972;3.538;2023-04-03T04:33:32;11.50;63.60
32706;DHT22;19094;50.972;3.538;2023-04-03T04:35:57;11.50;63.80
32706;DHT22;19094;50.972;3.538;2023-04-03T04:38:23;11.50;63.50
32706;DHT22;19094;50.972;3.538;2023-04-03T04:40:49;11.50;63.50
32706;DHT22;19094;50.972;3.538;2023-04-03T04:43:15;11.50;63.50
32706;DHT22;19094;50.972;3.538;2023-04-03T04:45:41;11.50;63.70
32706;DHT22;19094;50.972;3.538;2023-04-03T04:48:07;11.50;63.50
32706;DHT22;19094;50.972;3.538;2023-04-03T04:50:33;11.50;63.60
32706;DHT22;19094;50.972;3.538;2023-04-03T04:52:58;11.50;63.50
32706;DHT22;19094;50.972;3.538;2023-04-03T04:55:24;11.50;63.40
32706;DHT22;19094;50.972;3.538;2023-04-03T04:57:50;11.50;63.30
32706;DHT22;19094;50.972;3.538;2023-04-03T05:00:16;11.50;63.60
32706;DHT22;19094;50.972;3.538;2023-04-03T05:02:42;11.50;63.40
32706;DHT22;19094;50.972;3.538;2023-04-03T05:05:08;11.50;64.00
32706;DHT22;19094;50.972;3.538;2023-04-03T05:07:33;11.40;63.00
32706;DHT22;19094;50.972;3.538;2023-04-03T05:10:01;11.40;63.40
32706;DHT22;19094;50.972;3.538;2023-04-03T05:12:28;11.30;63.60
32706;DHT22;19094;50.972;3.538;2023-04-03T05:14:54;11.40;63.40
32706;DHT22;19094;50.972;3.538;2023-04-03T05:17:20;11.40;63.20
32706;DHT22;19094;50.972;3.538;2023-04-03T05:19:46;11.40;63.60
32706;DHT22;19094;50.972;3.538;2023-04-03T05:22:11;11.40;63.40
32706;DHT22;19094;50.972;3.538;2023-04-03T05:24:37;11.30;63.20
32706;DHT22;19094;50.972;3.538;2023-04-03T05:27:03;11.30;63.20
32706;DHT22;19094;50.972;3.538;2023-04-03T05:29:29;11.40;63.20
32706;DHT22;19094;50.972;3.538;2023-04-03T05:31:55;11.30;63.20
32706;DHT22;19094;50.972;3.538;2023-04-03T05:34:20;11.40;63.20
32706;DHT22;19094;50.972;3.538;2023-04-03T05:36:46;11.40;62.90
32706;DHT22;19094;50.972;3.538;2023-04-03T05:39:12;11.40;62.50
32706;DHT22;19094;50.972;3.538;2023-04-03T05:41:37;11.40;63.50
32706;DHT22;19094;50.972;3.538;2023-04-03T05:44:03;11.50;62.50
32706;DHT22;19094;50.972;3.538;2023-04-03T05:46:29;11.50;62.50
32706;DHT22;19094;50.972;3.538;2023-04-03T05:48:55;11.50;62.30
32706;DHT22;19094;50.972;3.538;2023-04-03T05:51:28;11.50;62.40
32706;DHT22;19094;50.972;3.538;2023-04-03T05:54:03;11.50;62.40
32706;DHT22;19094;50.972;3.538;2023-04-03T05:56:31;11.50;62.20
32706;DHT22;19094;50.972;3.538;2023-04-03T05:58:57;11.60;62.60
32706;DHT22;19094;50.972;3.538;2023-04-03T06:01:22;11.50;62.30
32706;DHT22;19094;50.972;3.538;2023-04-03T06:03:48;11.50;62.30
32706;DHT22;19094;50.972;3.538;2023-04-03T06:06:14;11.60;62.40
32706;DHT22;19094;50.972;3.538;2023-04-03T06:08:40;11.50;62.30
32706;DHT22;19094;50.972;3.538;2023-04-03T06:11:06;11.60;62.60
32706;DHT22;19094;50.972;3.538;2023-04-03T06:13:34;11.60;62.20
32706;DHT22;19094;50.972;3.538;2023-04-03T06:16:00;11.60;62.10
32706;DHT22;19094;50.972;3.538;2023-04-03T06:18:27;11.60;62.20
32706;DHT22;19094;50.972;3.538;2023-04-03T06:20:53;11.70;62.50
32706;DHT22;19094;50.972;3.538;2023-04-03T06:23:19;11.70;62.40
32706;DHT22;19094;50.972;3.538;2023-04-03T06:25:45;11.70;62.40
32706;DHT22;19094;50.972;3.538;2023-04-03T06:28:10;11.70;62.20
32706;DHT22;19094;50.972;3.538;2023-04-03T06:30:36;11.60;61.90
32706;DHT22;19094;50.972;3.538;2023-04-03T06:33:02;11.60;62.20
32706;DHT22;19094;50.972;3.538;2023-04-03T06:35:28;11.70;62.40
32706;DHT22;19094;50.972;3.538;2023-04-03T06:37:55;11.60;62.40
32706;DHT22;19094;50.972;3.538;2023-04-03T06:40:24;11.60;62.30
32706;DHT22;19094;50.972;3.538;2023-04-03T06:42:50;11.70;62.90
32706;DHT22;19094;50.972;3.538;2023-04-03T06:45:16;11.70;62.40
32706;DHT22;19094;50.972;3.538;2023-04-03T06:47:43;11.70;62.50
32706;DHT22;19094;50.972;3.538;2023-04-03T06:50:10;11.70;62.50
32706;DHT22;19094;50.972;3.538;2023-04-03T06:52:37;11.70;62.70
32706;DHT22;19094;50.972;3.538;2023-04-03T06:55:03;11.70;62.40
32706;DHT22;19094;50.972;3.538;2023-04-03T06:57:29;11.70;62.20
32706;DHT22;19094;50.972;3.538;2023-04-03T06:59:55;11.70;62.20
32706;DHT22;19094;50.972;3.538;2023-04-03T07:02:20;11.70;62.20
32706;DHT22;19094;50.972;3.538;2023-04-03T07:04:47;11.70;61.90
32706;DHT22;19094;50.972;3.538;2023-04-03T07:07:12;11.70;62.00
32706;DHT22;19094;50.972;3.538;2023-04-03T07:09:38;11.80;61.70
32706;DHT22;19094;50.972;3.538;2023-04-03T07:12:04;11.80;61.80
32706;DHT22;19094;50.972;3.538;2023-04-03T07:14:30;11.80;61.90
32706;DHT22;19094;50.972;3.538;2023-04-03T07:16:55;11.80;61.80
32706;DHT22;19094;50.972;3.538;2023-04-03T07:19:21;11.80;61.60
32706;DHT22;19094;50.972;3.538;2023-04-03T07:21:47;11.80;61.90
32706;DHT22;19094;50.972;3.538;2023-04-03T07:24:13;11.90;62.00
32706;DHT22;19094;50.972;3.538;2023-04-03T07:26:38;11.90;61.80
32706;DHT22;19094;50.972;3.538;2023-04-03T07:29:04;11.90;61.50
32706;DHT22;19094;50.972;3.538;2023-04-03T07:31:30;12.00;61.70
32706;DHT22;19094;50.972;3.538;2023-04-03T07:33:55;12.00;61.70
32706;DHT22;19094;50.972;3.538;2023-04-03T07:36:22;12.00;61.20
32706;DHT22;19094;50.972;3.538;2023-04-03T07:38:48;12.00;61.30
32706;DHT22;19094;50.972;3.538;2023-04-03T07:41:16;12.00;61.50
32706;DHT22;19094;50.972;3.538;2023-04-03T07:43:43;12.10;62.90
32706;DHT22;19094;50.972;3.538;2023-04-03T07:46:09;12.10;62.30
32706;DHT22;19094;50.972;3.538;2023-04-03T07:48:35;12.10;61.30
32706;DHT22;19094;50.972;3.538;2023-04-03T07:51:02;12.10;61.50
32706;DHT22;19094;50.972;3.538;2023-04-03T07:53:29;12.10;61.60
32706;DHT22;19094;50.972;3.538;2023-04-03T07:55:57;12.10;61.40
32706;DHT22;19094;50.972;3.538;2023-04-03T07:58:22;12.10;61.50
32706;DHT22;19094;50.972;3.538;2023-04-03T08:00:48;12.10;61.60
32706;DHT22;19094;50.972;3.538;2023-04-03T08:03:14;12.20;61.50
32706;DHT22;19094;50.972;3.538;2023-04-03T08:05:46;12.20;61.40
32706;DHT22;19094;50.972;3.538;2023-04-03T08:08:13;12.20;61.80
32706;DHT22;19094;50.972;3.538;2023-04-03T08:10:40;12.30;62.10
32706;DHT22;19094;50.972;3.538;2023-04-03T08:13:07;12.20;61.40
32706;DHT22;19094;50.972;3.538;2023-04-03T08:15:33;12.30;60.90
32706;DHT22;19094;50.972;3.538;2023-04-03T08:17:59;12.30;61.10
32706;DHT22;19094;50.972;3.538;2023-04-03T08:20:26;12.30;61.60
32706;DHT22;19094;50.972;3.538;2023-04-03T08:22:52;12.30;61.10
32706;DHT22;19094;50.972;3.538;2023-04-03T08:25:18;12.40;60.90
32706;DHT22;19094;50.972;3.538;2023-04-03T08:27:44;12.40;61.50
32706;DHT22;19094;50.972;3.538;2023-04-03T08:30:11;12.40;60.80
32706;DHT22;19094;50.972;3.538;2023-04-03T08:32:37;12.30;61.00
32706;DHT22;19094;50.972;3.538;2023-04-03T08:35:04;12.40;60.90
32706;DHT22;19094;50.972;3.538;2023-04-03T08:37:30;12.40;61.10
32706;DHT22;19094;50.972;3.538;2023-04-03T08:39:56;12.40;60.90
32706;DHT22;19094;50.972;3.538;2023-04-03T08:45:42;12.50;60.80
32706;DHT22;19094;50.972;3.538;2023-04-03T08:48:06;12.50;61.20
32706;DHT22;19094;50.972;3.538;2023-04-03T08:50:40;12.60;61.40
32706;DHT22;19094;50.972;3.538;2023-04-03T08:53:35;12.50;60.80
32706;DHT22;19094;50.972;3.538;2023-04-03T08:56:04;12.60;61.20
32706;DHT22;19094;50.972;3.538;2023-04-03T08:58:41;12.60;60.60
32706;DHT22;19094;50.972;3.538;2023-04-03T09:01:37;12.60;61.00
32706;DHT22;19094;50.972;3.538;2023-04-03T09:04:14;12.70;61.50
32706;DHT22;19094;50.972;3.538;2023-04-03T09:06:45;12.70;61.80
32706;DHT22;19094;50.972;3.538;2023-04-03T09:22:51;12.90;60.60
32706;DHT22;19094;50.972;3.538;2023-04-03T09:25:32;12.90;61.40
32706;DHT22;19094;50.972;3.538;2023-04-03T09:28:00;13.00;60.60
32706;DHT22;19094;50.972;3.538;2023-04-03T09:30:27;12.90;60.60
32706;DHT22;19094;50.972;3.538;2023-04-03T09:32:55;12.90;61.00
32706;DHT22;19094;50.972;3.538;2023-04-03T09:35:29;12.90;60.60
32706;DHT22;19094;50.972;3.538;2023-04-03T09:40:39;13.10;61.80
32706;DHT22;19094;50.972;3.538;2023-04-03T09:45:43;13.10;61.20
32706;DHT22;19094;50.972;3.538;2023-04-03T09:50:52;13.20;61.60
32706;DHT22;19094;50.972;3.538;2023-04-03T09:55:58;13.10;60.30
32706;DHT22;19094;50.972;3.538;2023-04-03T09:58:30;13.20;61.70
32706;DHT22;19094;50.972;3.538;2023-04-03T10:00:58;13.20;61.20
32706;DHT22;19094;50.972;3.538;2023-04-03T10:03:28;13.20;61.30
32706;DHT22;19094;50.972;3.538;2023-04-03T10:05:54;13.20;60.70
32706;DHT22;19094;50.972;3.538;2023-04-03T10:08:23;13.20;61.50
32706;DHT22;19094;50.972;3.538;2023-04-03T10:11:07;13.20;61.60
32706;DHT22;19094;50.972;3.538;2023-04-03T10:13:33;13.10;59.80
32706;DHT22;19094;50.972;3.538;2023-04-03T10:16:14;13.20;61.00
32706;DHT22;19094;50.972;3.538;2023-04-03T10:18:59;13.30;60.70
32706;DHT22;19094;50.972;3.538;2023-04-03T10:24:10;13.30;61.40
32706;DHT22;19094;50.972;3.538;2023-04-03T10:34:47;13.30;61.10
32706;DHT22;19094;50.972;3.538;2023-04-03T10:43:09;13.40;61.60
32706;DHT22;19094;50.972;3.538;2023-04-03T10:48:31;13.40;59.70
32706;DHT22;19094;50.972;3.538;2023-04-03T10:54:01;13.40;60.30
32706;DHT22;19094;50.972;3.538;2023-04-03T10:57:10;13.50;59.20
32706;DHT22;19094;50.972;3.538;2023-04-03T10:59:38;13.30;58.20
32706;DHT22;19094;50.972;3.538;2023-04-03T11:02:16;13.30;56.40
32706;DHT22;19094;50.972;3.538;2023-04-03T11:04:46;13.40;55.60
32706;DHT22;19094;50.972;3.538;2023-04-03T11:07:19;13.40;55.10
32706;DHT22;19094;50.972;3.538;2023-04-03T11:09:50;13.50;54.60
32706;DHT22;19094;50.972;3.538;2023-04-03T11:12:25;13.80;56.90
32706;DHT22;19094;50.972;3.538;2023-04-03T11:14:55;14.00;55.90
32706;DHT22;19094;50.972;3.538;2023-04-03T11:17:31;14.40;54.50
32706;DHT22;19094;50.972;3.538;2023-04-03T11:23:25;14.70;52.90
32706;DHT22;19094;50.972;3.538;2023-04-03T11:25:54;14.90;54.50
32706;DHT22;19094;50.972;3.538;2023-04-03T11:28:22;15.10;53.80
32706;DHT22;19094;50.972;3.538;2023-04-03T11:34:45;15.30;53.80
32706;DHT22;19094;50.972;3.538;2023-04-03T11:37:39;15.40;53.50
32706;DHT22;19094;50.972;3.538;2023-04-03T11:40:25;15.50;52.00
32706;DHT22;19094;50.972;3.538;2023-04-03T11:43:23;15.60;51.70
32706;DHT22;19094;50.972;3.538;2023-04-03T11:45:58;15.50;48.70
32706;DHT22;19094;50.972;3.538;2023-04-03T11:51:03;15.40;49.00
32706;DHT22;19094;50.972;3.538;2023-04-03T11:53:47;15.80;51.20
32706;DHT22;19094;50.972;3.538;2023-04-03T12:04:10;16.20;47.60
32706;DHT22;19094;50.972;3.538;2023-04-03T12:11:47;16.40;43.50
32706;DHT22;19094;50.972;3.538;2023-04-03T12:14:15;16.40;45.70
32706;DHT22;19094;50.972;3.538;2023-04-03T12:16:46;16.60;45.70
32706;DHT22;19094;50.972;3.538;2023-04-03T12:24:34;17.00;46.90
32706;DHT22;19094;50.972;3.538;2023-04-03T12:46:00;17.70;45.00
32706;DHT22;19094;50.972;3.538;2023-04-03T12:48:30;17.60;49.50
32706;DHT22;19094;50.972;3.538;2023-04-03T12:50:57;17.70;48.50
32706;DHT22;19094;50.972;3.538;2023-04-03T12:53:36;17.80;48.50
32706;DHT22;19094;50.972;3.538;2023-04-03T12:56:26;17.80;42.00
32706;DHT22;19094;50.972;3.538;2023-04-03T12:58:54;17.80;45.40
32706;DHT22;19094;50.972;3.538;2023-04-03T13:01:24;18.00;46.00
32706;DHT22;19094;50.972;3.538;2023-04-03T13:03:55;18.20;45.60
32706;DHT22;19094;50.972;3.538;2023-04-03T13:06:27;18.40;45.60
32706;DHT22;19094;50.972;3.538;2023-04-03T13:08:58;18.40;37.20
32706;DHT22;19094;50.972;3.538;2023-04-03T13:11:26;18.60;43.80
32706;DHT22;19094;50.972;3.538;2023-04-03T13:14:04;18.80;45.10
32706;DHT22;19094;50.972;3.538;2023-04-03T13:16:32;18.90;46.40
32706;DHT22;19094;50.972;3.538;2023-04-03T13:18:59;18.90;40.60
32706;DHT22;19094;50.972;3.538;2023-04-03T13:21:28;19.10;39.80
32706;DHT22;19094;50.972;3.538;2023-04-03T13:24:00;19.30;37.40
32706;DHT22;19094;50.972;3.538;2023-04-03T13:26:31;19.50;38.20
32706;DHT22;19094;50.972;3.538;2023-04-03T13:29:07;19.50;44.60
32706;DHT22;19094;50.972;3.538;2023-04-03T13:31:44;19.60;40.80
32706;DHT22;19094;50.972;3.538;2023-04-03T13:34:13;19.80;36.30
32706;DHT22;19094;50.972;3.538;2023-04-03T13:41:47;20.00;43.50
32706;DHT22;19094;50.972;3.538;2023-04-03T13:46:43;20.10;44.00
32706;DHT22;19094;50.972;3.538;2023-04-03T13:49:37;19.90;43.40
32706;DHT22;19094;50.972;3.538;2023-04-03T13:52:20;19.90;45.00
32706;DHT22;19094;50.972;3.538;2023-04-03T13:55:03;20.00;40.50
32706;DHT22;19094;50.972;3.538;2023-04-03T13:57:35;20.20;43.10
32706;DHT22;19094;50.972;3.538;2023-04-03T14:00:38;20.20;42.70
32706;DHT22;19094;50.972;3.538;2023-04-03T14:05:43;20.70;35.10
32706;DHT22;19094;50.972;3.538;2023-04-03T14:08:10;20.80;34.10
32706;DHT22;19094;50.972;3.538;2023-04-03T14:10:37;21.00;35.50
32706;DHT22;19094;50.972;3.538;2023-04-03T14:13:04;21.10;34.40
32706;DHT22;19094;50.972;3.538;2023-04-03T14:15:31;21.20;38.90
32706;DHT22;19094;50.972;3.538;2023-04-03T14:17:57;21.30;33.60
32706;DHT22;19094;50.972;3.538;2023-04-03T14:20:25;21.50;38.60
32706;DHT22;19094;50.972;3.538;2023-04-03T14:22:51;21.30;41.50
32706;DHT22;19094;50.972;3.538;2023-04-03T14:25:19;21.20;38.50
32706;DHT22;19094;50.972;3.538;2023-04-03T14:27:47;21.40;40.90
32706;DHT22;19094;50.972;3.538;2023-04-03T14:30:21;21.40;38.10
32706;DHT22;19094;50.972;3.538;2023-04-03T14:32:48;21.60;40.30
32706;DHT22;19094;50.972;3.538;2023-04-03T14:35:14;21.70;33.40
32706;DHT22;19094;50.972;3.538;2023-04-03T14:37:41;21.90;30.20
32706;DHT22;19094;50.972;3.538;2023-04-03T14:40:08;22.00;31.50
32706;DHT22;19094;50.972;3.538;2023-04-03T14:42:37;22.10;29.90
32706;DHT22;19094;50.972;3.538;2023-04-03T14:45:07;22.30;30.30
32706;DHT22;19094;50.972;3.538;2023-04-03T14:47:43;22.30;29.40
32706;DHT22;19094;50.972;3.538;2023-04-03T14:50:15;22.30;29.40
32706;DHT22;19094;50.972;3.538;2023-04-03T14:52:41;22.40;29.60
32706;DHT22;19094;50.972;3.538;2023-04-03T14:55:07;22.50;34.00
32706;DHT22;19094;50.972;3.538;2023-04-03T14:57:33;22.50;30.20
32706;DHT22;19094;50.972;3.538;2023-04-03T14:59:59;22.70;29.50
32706;DHT22;19094;50.972;3.538;2023-04-03T15:02:34;22.70;29.90
32706;DHT22;19094;50.972;3.538;2023-04-03T15:05:02;22.80;29.90
32706;DHT22;19094;50.972;3.538;2023-04-03T15:07:31;22.80;32.90
32706;DHT22;19094;50.972;3.538;2023-04-03T15:10:20;22.80;36.40
32706;DHT22;19094;50.972;3.538;2023-04-03T15:12:45;22.50;38.00
32706;DHT22;19094;50.972;3.538;2023-04-03T15:15:11;22.40;39.20
32706;DHT22;19094;50.972;3.538;2023-04-03T15:17:37;22.30;39.50
32706;DHT22;19094;50.972;3.538;2023-04-03T15:20:16;22.20;40.00
32706;DHT22;19094;50.972;3.538;2023-04-03T15:22:42;22.10;39.40
32706;DHT22;19094;50.972;3.538;2023-04-03T15:25:08;22.30;39.60
32706;DHT22;19094;50.972;3.538;2023-04-03T15:27:34;22.40;37.00
32706;DHT22;19094;50.972;3.538;2023-04-03T15:30:00;22.60;32.40
32706;DHT22;19094;50.972;3.538;2023-04-03T15:32:26;22.50;38.00
32706;DHT22;19094;50.972;3.538;2023-04-03T15:34:52;22.40;39.80
32706;DHT22;19094;50.972;3.538;2023-04-03T15:37:18;22.50;37.90
32706;DHT22;19094;50.972;3.538;2023-04-03T15:39:44;22.50;33.80
32706;DHT22;19094;50.972;3.538;2023-04-03T15:42:10;22.60;38.80
32706;DHT22;19094;50.972;3.538;2023-04-03T15:44:37;22.50;39.80
32706;DHT22;19094;50.972;3.538;2023-04-03T15:47:04;22.30;38.90
32706;DHT22;19094;50.972;3.538;2023-04-03T15:49:32;22.50;35.40
32706;DHT22;19094;50.972;3.538;2023-04-03T15:51:58;22.50;39.30
32706;DHT22;19094;50.972;3.538;2023-04-03T15:54:23;22.40;37.50
32706;DHT22;19094;50.972;3.538;2023-04-03T15:56:50;22.40;38.60
32706;DHT22;19094;50.972;3.538;2023-04-03T15:59:16;22.40;34.40
32706;DHT22;19094;50.972;3.538;2023-04-03T16:01:42;22.30;38.30
32706;DHT22;19094;50.972;3.538;2023-04-03T16:04:09;22.10;36.90
32706;DHT22;19094;50.972;3.538;2023-04-03T16:06:36;22.10;38.20
32706;DHT22;19094;50.972;3.538;2023-04-03T16:09:02;22.00;40.90
32706;DHT22;19094;50.972;3.538;2023-04-03T16:11:27;21.80;41.30
32706;DHT22;19094;50.972;3.538;2023-04-03T16:13:54;21.70;40.60
32706;DHT22;19094;50.972;3.538;2023-04-03T16:16:20;21.60;41.60
32706;DHT22;19094;50.972;3.538;2023-04-03T16:18:46;21.60;38.40
32706;DHT22;19094;50.972;3.538;2023-04-03T16:21:12;21.40;42.00
32706;DHT22;19094;50.972;3.538;2023-04-03T16:23:39;21.20;42.70
32706;DHT22;19094;50.972;3.538;2023-04-03T16:26:05;20.90;43.40
32706;DHT22;19094;50.972;3.538;2023-04-03T16:28:31;20.70;43.30
32706;DHT22;19094;50.972;3.538;2023-04-03T16:30:57;20.60;40.80
32706;DHT22;19094;50.972;3.538;2023-04-03T16:33:23;20.30;40.90
32706;DHT22;19094;50.972;3.538;2023-04-03T16:35:50;20.10;43.90
32706;DHT22;19094;50.972;3.538;2023-04-03T16:38:16;19.80;44.60
32706;DHT22;19094;50.972;3.538;2023-04-03T16:40:41;19.60;45.50
32706;DHT22;19094;50.972;3.538;2023-04-03T16:43:07;19.40;46.60
32706;DHT22;19094;50.972;3.538;2023-04-03T16:45:33;19.20;45.00
32706;DHT22;19094;50.972;3.538;2023-04-03T16:47:58;19.00;46.60
32706;DHT22;19094;50.972;3.538;2023-04-03T16:50:24;18.80;46.80
32706;DHT22;19094;50.972;3.538;2023-04-03T16:52:50;18.60;47.70
32706;DHT22;19094;50.972;3.538;2023-04-03T16:55:15;18.50;48.10
32706;DHT22;19094;50.972;3.538;2023-04-03T16:57:41;18.30;47.80
32706;DHT22;19094;50.972;3.538;2023-04-03T17:00:07;18.20;48.20
32706;DHT22;19094;50.972;3.538;2023-04-03T17:02:33;18.10;48.90
32706;DHT22;19094;50.972;3.538;2023-04-03T17:04:59;18.00;48.60
32706;DHT22;19094;50.972;3.538;2023-04-03T17:07:25;17.80;48.10
32706;DHT22;19094;50.972;3.538;2023-04-03T17:09:52;17.80;50.00
32706;DHT22;19094;50.972;3.538;2023-04-03T17:12:20;17.70;49.80
32706;DHT22;19094;50.972;3.538;2023-04-03T17:14:46;17.60;50.30
32706;DHT22;19094;50.972;3.538;2023-04-03T17:17:13;17.60;51.00
32706;DHT22;19094;50.972;3.538;2023-04-03T17:19:40;17.50;51.30
32706;DHT22;19094;50.972;3.538;2023-04-03T17:22:07;17.40;51.10
32706;DHT22;19094;50.972;3.538;2023-04-03T17:24:34;17.40;51.40
32706;DHT22;19094;50.972;3.538;2023-04-03T17:27:00;17.30;50.70
32706;DHT22;19094;50.972;3.538;2023-04-03T17:29:25;17.20;50.10
32706;DHT22;19094;50.972;3.538;2023-04-03T17:31:51;17.10;50.10
32706;DHT22;19094;50.972;3.538;2023-04-03T17:34:17;17.10;49.70
32706;DHT22;19094;50.972;3.538;2023-04-03T17:36:42;17.00;51.70